createdAt,value
2022-11-26T00:00:52.941Z,7.62
2022-11-26T00:03:19.476Z,7.56
2022-11-26T00:05:46.951Z,7.51
2022-11-26T00:08:30.314Z,7.48
2022-11-26T00:10:56.805Z,7.44
2022-11-26T00:13:25.057Z,7.43
2022-11-26T00:15:51.711Z,7.40
2022-11-26T00:18:18.310Z,7.40
2022-11-26T00:20:45.013Z,7.39
2022-11-26T00:23:25.580Z,7.39
2022-11-26T00:25:54.411Z,7.40
2022-11-26T00:28:26.744Z,7.41
2022-11-26T00:30:55.961Z,7.41
2022-11-26T00:33:22.994Z,7.41
2022-11-26T00:35:50.133Z,7.40
2022-11-26T00:38:18.014Z,7.36
2022-11-26T00:40:44.396Z,7.32
2022-11-26T00:43:11.661Z,7.25
2022-11-26T00:45:38.117Z,7.23
2022-11-26T00:48:04.527Z,7.22
2022-11-26T00:50:38.955Z,7.16
2022-11-26T00:53:05.591Z,7.12
2022-11-26T00:55:37.244Z,7.09
2022-11-26T00:58:04.023Z,7.05
2022-11-26T01:00:31.535Z,7.01
2022-11-26T01:02:58.005Z,6.98
2022-11-26T01:05:25.509Z,6.93
2022-11-26T01:07:52.332Z,6.90
2022-11-26T01:10:24.563Z,6.85
2022-11-26T01:12:51.255Z,6.84
2022-11-26T01:15:18.438Z,6.81
2022-11-26T01:17:44.949Z,6.80
2022-11-26T01:20:30.519Z,6.72
2022-11-26T01:22:58.056Z,6.70
2022-11-26T01:25:25.151Z,6.66
2022-11-26T01:27:51.846Z,6.68
2022-11-26T01:30:23.876Z,6.61
2022-11-26T01:32:50.367Z,6.58
2022-11-26T01:35:17.705Z,6.56
2022-11-26T01:37:44.288Z,6.56
2022-11-26T01:40:29.272Z,6.54
2022-11-26T01:43:28.826Z,6.50
2022-11-26T01:45:55.988Z,6.48
2022-11-26T01:48:23.480Z,6.46
2022-11-26T01:51:06.337Z,6.43
2022-11-26T01:53:38.816Z,6.41
2022-11-26T01:56:27.206Z,6.38
2022-11-26T01:59:00.580Z,6.38
2022-11-26T02:01:26.977Z,6.39
2022-11-26T02:03:58.071Z,6.40
2022-11-26T02:06:27.988Z,6.40
2022-11-26T02:08:54.648Z,6.41
2022-11-26T02:11:22.796Z,6.41
2022-11-26T02:13:51.895Z,6.43
2022-11-26T02:16:25.254Z,6.45
2022-11-26T02:19:25.463Z,6.45
2022-11-26T02:22:28.908Z,6.50
2022-11-26T02:25:09.571Z,6.51
2022-11-26T02:28:03.685Z,6.53
2022-11-26T02:30:31.720Z,6.57
2022-11-26T02:33:09.007Z,6.59
2022-11-26T02:35:45.385Z,6.58
2022-11-26T02:38:24.952Z,6.57
2022-11-26T02:40:51.802Z,6.54
2022-11-26T02:43:18.287Z,6.51
2022-11-26T02:45:47.194Z,6.47
2022-11-26T02:48:16.897Z,6.49
2022-11-26T02:50:46.015Z,6.46
2022-11-26T02:53:12.414Z,6.48
2022-11-26T02:55:41.587Z,6.46
2022-11-26T02:58:07.920Z,6.43
2022-11-26T03:00:34.627Z,6.42
2022-11-26T03:03:08.567Z,6.37
2022-11-26T03:05:35.677Z,6.37
2022-11-26T03:08:02.024Z,6.39
2022-11-26T03:10:28.701Z,6.36
2022-11-26T03:12:55.076Z,6.38
2022-11-26T03:15:21.482Z,6.36
2022-11-26T03:17:47.989Z,6.39
2022-11-26T03:20:14.622Z,6.40
2022-11-26T03:22:41.224Z,6.43
2022-11-26T03:25:08.178Z,6.44
2022-11-26T03:27:35.615Z,6.43
2022-11-26T03:30:02.148Z,6.43
2022-11-26T03:32:28.675Z,6.45
2022-11-26T03:34:55.020Z,6.44
2022-11-26T03:37:21.408Z,6.46
2022-11-26T03:39:47.748Z,6.46
2022-11-26T03:42:14.127Z,6.46
2022-11-26T03:44:40.631Z,6.42
2022-11-26T03:47:07.146Z,6.42
2022-11-26T03:49:33.609Z,6.41
2022-11-26T03:52:00.000Z,6.36
2022-11-26T03:54:26.400Z,6.37
2022-11-26T03:56:52.754Z,6.31
2022-11-26T03:59:19.125Z,6.30
2022-11-26T04:01:45.680Z,6.29
2022-11-26T04:04:12.090Z,6.27
2022-11-26T04:06:38.558Z,6.25
2022-11-26T04:09:04.944Z,6.21
2022-11-26T04:11:31.377Z,6.17
2022-11-26T04:13:57.754Z,6.15
2022-11-26T04:16:24.119Z,6.14
2022-11-26T04:18:50.572Z,6.13
2022-11-26T04:21:16.987Z,6.09
2022-11-26T04:23:43.375Z,6.07
2022-11-26T04:26:09.740Z,6.04
2022-11-26T04:28:36.185Z,5.95
2022-11-26T04:31:02.551Z,5.84
2022-11-26T04:33:28.913Z,5.59
2022-11-26T04:35:55.434Z,5.49
2022-11-26T04:38:25.718Z,5.45
2022-11-26T04:40:52.553Z,5.47
2022-11-26T04:43:18.931Z,5.31
2022-11-26T04:45:45.397Z,5.14
2022-11-26T04:48:11.788Z,5.05
2022-11-26T04:50:38.186Z,4.98
2022-11-26T04:53:04.587Z,4.94
2022-11-26T04:55:30.939Z,4.89
2022-11-26T04:57:57.289Z,4.83
2022-11-26T05:00:23.667Z,4.86
2022-11-26T05:02:50.127Z,4.88
2022-11-26T05:05:16.608Z,5.01
2022-11-26T05:07:42.995Z,5.06
2022-11-26T05:10:09.978Z,5.05
2022-11-26T05:12:36.365Z,4.96
2022-11-26T05:15:03.055Z,4.88
2022-11-26T05:17:29.425Z,4.85
2022-11-26T05:19:55.760Z,4.76
2022-11-26T05:22:22.133Z,4.64
2022-11-26T05:24:48.472Z,4.56
2022-11-26T05:27:14.832Z,4.51
2022-11-26T05:29:41.221Z,4.54
2022-11-26T05:32:07.650Z,4.49
2022-11-26T05:34:34.022Z,4.44
2022-11-26T05:37:00.360Z,4.39
2022-11-26T05:39:26.733Z,4.40
2022-11-26T05:41:53.226Z,4.36
2022-11-26T05:44:19.568Z,4.32
2022-11-26T05:46:45.934Z,4.28
2022-11-26T05:49:12.321Z,4.22
2022-11-26T05:51:38.669Z,4.21
2022-11-26T05:54:05.134Z,4.15
2022-11-26T05:56:31.480Z,4.09
2022-11-26T05:58:57.848Z,4.05
2022-11-26T06:01:24.195Z,3.98
2022-11-26T06:03:50.803Z,3.95
2022-11-26T06:06:17.278Z,3.96
2022-11-26T06:08:43.662Z,3.92
2022-11-26T06:11:12.586Z,3.94
2022-11-26T06:13:39.360Z,3.89
2022-11-26T06:16:06.192Z,3.86
2022-11-26T06:18:32.573Z,3.83
2022-11-26T06:21:02.893Z,3.77
2022-11-26T06:23:29.244Z,3.69
2022-11-26T06:25:55.632Z,3.65
2022-11-26T06:28:21.973Z,3.58
2022-11-26T06:30:48.403Z,3.56
2022-11-26T06:33:14.841Z,3.51
2022-11-26T06:35:41.205Z,3.47
2022-11-26T06:38:07.940Z,3.44
2022-11-26T06:40:34.414Z,3.45
2022-11-26T06:43:00.734Z,3.42
2022-11-26T06:45:27.209Z,3.42
2022-11-26T06:47:53.681Z,3.45
2022-11-26T06:50:21.354Z,3.50
2022-11-26T06:52:51.772Z,3.55
2022-11-26T06:55:18.204Z,3.54
2022-11-26T06:57:44.554Z,3.54
2022-11-26T07:00:11.609Z,3.57
2022-11-26T07:02:38.224Z,3.57
2022-11-26T07:05:04.817Z,3.60
2022-11-26T07:07:31.210Z,3.63
2022-11-26T07:09:57.613Z,3.64
2022-11-26T07:12:23.981Z,3.69
2022-11-26T07:14:50.342Z,3.73
2022-11-26T07:17:16.771Z,3.81
2022-11-26T07:19:43.137Z,3.86
2022-11-26T07:22:09.482Z,4.23
2022-11-26T07:24:36.030Z,4.35
2022-11-26T07:27:02.622Z,4.55
2022-11-26T07:29:29.037Z,4.63
2022-11-26T07:31:55.496Z,4.67
2022-11-26T07:34:21.879Z,4.77
2022-11-26T07:36:48.225Z,4.88
2022-11-26T07:39:14.615Z,4.98
2022-11-26T07:41:40.962Z,5.03
2022-11-26T07:44:13.981Z,5.06
2022-11-26T07:46:40.453Z,5.12
2022-11-26T07:49:07.057Z,5.21
2022-11-26T07:51:33.575Z,5.25
2022-11-26T07:54:00.415Z,5.27
2022-11-26T07:56:27.180Z,5.30
2022-11-26T07:58:53.907Z,5.30
2022-11-26T08:01:26.953Z,5.31
2022-11-26T08:03:53.395Z,5.19
2022-11-26T08:06:21.077Z,5.07
2022-11-26T08:08:47.531Z,5.01
2022-11-26T08:11:16.017Z,5.00
2022-11-26T08:13:42.849Z,5.03
2022-11-26T08:16:09.311Z,5.03
2022-11-26T08:18:35.790Z,5.11
2022-11-26T08:21:02.221Z,5.25
2022-11-26T08:23:29.131Z,5.37
2022-11-26T08:28:42.803Z,5.60
2022-11-26T08:31:09.814Z,5.69
2022-11-26T08:33:36.249Z,5.74
2022-11-26T08:36:07.605Z,5.77
2022-11-26T08:38:34.863Z,5.77
2022-11-26T08:41:01.958Z,5.80
2022-11-26T08:43:51.443Z,5.82
2022-11-26T08:46:14.807Z,5.85
2022-11-26T08:48:41.293Z,5.90
2022-11-26T08:51:10.025Z,5.95
2022-11-26T08:53:36.712Z,6.03
2022-11-26T08:56:07.762Z,6.11
2022-11-26T08:58:34.715Z,6.18
2022-11-26T09:01:08.153Z,6.23
2022-11-26T09:03:34.758Z,6.29
2022-11-26T09:06:02.341Z,6.31
2022-11-26T09:08:45.146Z,6.33
2022-11-26T09:11:12.160Z,6.34
2022-11-26T09:13:38.500Z,6.39
2022-11-26T09:16:05.173Z,6.41
2022-11-26T09:18:31.567Z,6.45
2022-11-26T09:21:02.337Z,6.49
2022-11-26T09:23:28.896Z,6.52
2022-11-26T09:25:55.337Z,6.56
2022-11-26T09:28:21.694Z,6.65
2022-11-26T09:30:48.045Z,6.70
2022-11-26T09:33:14.446Z,6.78
2022-11-26T09:35:40.791Z,6.81
2022-11-26T09:38:07.137Z,6.81
2022-11-26T09:41:00.387Z,6.85
2022-11-26T09:43:35.406Z,6.85
2022-11-26T09:46:01.845Z,6.89
2022-11-26T09:48:28.889Z,6.93
2022-11-26T09:51:00.184Z,7.00
2022-11-26T09:53:28.667Z,7.14
2022-11-26T09:55:55.607Z,7.22
2022-11-26T09:58:30.379Z,7.28
2022-11-26T10:00:58.463Z,7.31
2022-11-26T10:03:35.698Z,7.35
2022-11-26T10:06:02.543Z,7.39
2022-11-26T10:08:59.366Z,7.41
2022-11-26T10:11:53.675Z,7.47
2022-11-26T10:14:47.817Z,7.52
2022-11-26T10:17:34.267Z,7.63
2022-11-26T10:20:30.083Z,7.69
2022-11-26T10:23:11.660Z,7.78
2022-11-26T10:25:52.778Z,7.86
2022-11-26T10:28:21.070Z,7.89
2022-11-26T10:30:52.652Z,7.86
2022-11-26T10:33:19.010Z,7.91
2022-11-26T10:35:45.393Z,8.01
2022-11-26T10:38:11.746Z,8.05
2022-11-26T10:40:38.170Z,8.08
2022-11-26T10:43:10.225Z,8.12
2022-11-26T10:45:37.686Z,8.20
2022-11-26T10:48:14.657Z,8.17
2022-11-26T10:50:47.742Z,8.17
2022-11-26T10:53:22.252Z,8.15
2022-11-26T10:55:48.605Z,8.17
2022-11-26T10:58:22.813Z,8.19
2022-11-26T11:00:49.257Z,8.28
2022-11-26T11:03:51.893Z,8.39
2022-11-26T11:06:19.065Z,8.44
2022-11-26T11:08:50.048Z,8.48
2022-11-26T11:11:21.693Z,8.51
2022-11-26T11:13:48.276Z,8.45
2022-11-26T11:16:17.678Z,8.48
2022-11-26T11:18:52.096Z,8.50
2022-11-26T11:21:18.965Z,8.48
2022-11-26T11:24:07.744Z,8.50
2022-11-26T11:26:39.157Z,8.53
2022-11-26T11:29:05.494Z,8.58
2022-11-26T11:31:32.582Z,8.60
2022-11-26T11:34:13.008Z,8.59
2022-11-26T11:36:39.365Z,8.64
2022-11-26T11:39:05.734Z,8.66
2022-11-26T11:41:47.891Z,8.69
2022-11-26T11:44:23.816Z,8.63
2022-11-26T11:47:10.766Z,8.65
2022-11-26T11:49:49.625Z,8.74
2022-11-26T11:52:37.417Z,8.82
2022-11-26T11:55:12.928Z,8.82
2022-11-26T11:58:10.364Z,8.84
2022-11-26T12:01:10.858Z,8.84
2022-11-26T12:03:43.159Z,8.85
2022-11-26T12:06:09.499Z,8.87
2022-11-26T12:08:45.036Z,8.95
2022-11-26T12:11:17.393Z,8.94
2022-11-26T12:13:49.746Z,8.96
2022-11-26T12:16:16.733Z,9.00
2022-11-26T12:18:53.262Z,9.00
2022-11-26T12:21:27.073Z,8.95
2022-11-26T12:23:57.594Z,8.95
2022-11-26T12:26:24.654Z,8.98
2022-11-26T12:28:54.197Z,8.99
2022-11-26T12:31:25.620Z,8.99
2022-11-26T12:33:58.138Z,9.04
2022-11-26T12:36:38.369Z,9.07
2022-11-26T12:39:19.101Z,9.11
2022-11-26T12:41:55.447Z,9.16
2022-11-26T12:44:29.640Z,9.19
2022-11-26T12:47:09.264Z,9.23
2022-11-26T12:49:45.548Z,9.24
2022-11-26T12:52:24.229Z,9.21
2022-11-26T12:55:17.853Z,9.22
2022-11-26T12:57:55.296Z,9.19
2022-11-26T13:00:36.214Z,9.19
2022-11-26T13:03:04.581Z,9.23
2022-11-26T13:05:51.229Z,9.31
2022-11-26T13:08:21.136Z,9.33
2022-11-26T13:10:53.172Z,9.34
2022-11-26T13:13:33.117Z,9.32
2022-11-26T13:16:20.009Z,9.35
2022-11-26T13:18:48.591Z,9.43
2022-11-26T13:21:26.987Z,9.43
2022-11-26T13:24:13.517Z,9.47
2022-11-26T13:26:58.525Z,9.49
2022-11-26T13:29:37.085Z,9.50
2022-11-26T13:32:12.984Z,9.49
2022-11-26T13:35:08.888Z,9.46
2022-11-26T13:37:56.744Z,9.42
2022-11-26T13:40:39.647Z,9.37
2022-11-26T13:43:33.602Z,9.34
2022-11-26T13:46:10.587Z,9.31
2022-11-26T13:48:45.915Z,9.34
2022-11-26T13:51:44.387Z,9.38
2022-11-26T13:54:31.357Z,9.40
2022-11-26T13:57:03.431Z,9.40
2022-11-26T13:59:29.800Z,9.35
2022-11-26T14:01:56.355Z,9.29
2022-11-26T14:04:48.343Z,9.27
2022-11-26T14:07:14.936Z,9.29
2022-11-26T14:09:47.231Z,9.24
2022-11-26T14:12:14.187Z,9.22
2022-11-26T14:14:41.865Z,9.18
2022-11-26T14:17:08.350Z,9.10
2022-11-26T14:19:40.740Z,9.03
2022-11-26T14:22:19.682Z,8.92
2022-11-26T14:24:49.369Z,8.93
2022-11-26T14:27:19.504Z,8.87
2022-11-26T14:30:09.240Z,8.82
2022-11-26T14:32:58.931Z,8.76
2022-11-26T14:35:30.696Z,8.72
2022-11-26T14:37:58.955Z,8.67
2022-11-26T14:40:33.665Z,8.61
2022-11-26T14:43:22.252Z,8.51
2022-11-26T14:45:59.063Z,8.49
2022-11-26T14:48:26.837Z,8.49
2022-11-26T14:50:53.955Z,8.47
2022-11-26T14:53:21.097Z,8.44
2022-11-26T14:55:47.436Z,8.42
2022-11-26T14:58:26.369Z,8.38
2022-11-26T15:01:03.199Z,8.26
2022-11-26T15:03:29.704Z,8.17
2022-11-26T15:05:56.097Z,8.07
2022-11-26T15:08:24.765Z,7.98
2022-11-26T15:10:53.181Z,7.86
2022-11-26T15:13:23.971Z,7.68
2022-11-26T15:15:54.308Z,7.46
2022-11-26T15:18:22.838Z,7.31
2022-11-26T15:20:50.917Z,7.21
2022-11-26T15:23:19.012Z,7.04
2022-11-26T15:25:49.592Z,6.87
2022-11-26T15:28:20.289Z,6.77
2022-11-26T15:31:03.225Z,6.69
2022-11-26T15:33:31.408Z,6.61
2022-11-26T15:35:57.937Z,6.54
2022-11-26T15:38:28.706Z,6.47
2022-11-26T15:41:01.927Z,6.37
2022-11-26T15:43:30.960Z,6.24
2022-11-26T15:46:24.742Z,6.12
2022-11-26T15:48:55.761Z,5.99
2022-11-26T15:51:35.228Z,5.91
2022-11-26T15:54:02.547Z,5.81
2022-11-26T15:56:32.224Z,5.76
2022-11-26T15:59:00.552Z,5.67
2022-11-26T16:01:29.018Z,5.62
2022-11-26T16:03:56.407Z,5.53
2022-11-26T16:06:40.932Z,5.56
2022-11-26T16:09:13.695Z,5.51
2022-11-26T16:11:57.401Z,5.64
2022-11-26T16:14:26.755Z,5.65
2022-11-26T16:16:53.180Z,5.65
2022-11-26T16:19:22.490Z,5.58
2022-11-26T16:21:52.366Z,5.49
2022-11-26T16:24:40.112Z,5.39
2022-11-26T16:27:07.795Z,5.30
2022-11-26T16:29:35.676Z,5.19
2022-11-26T16:32:03.104Z,5.12
2022-11-26T16:34:29.589Z,5.04
2022-11-26T16:37:01.207Z,4.96
2022-11-26T16:39:30.481Z,4.91
2022-11-26T16:41:57.287Z,4.85
2022-11-26T16:44:23.650Z,4.84
2022-11-26T16:46:50.664Z,4.84
2022-11-26T16:49:17.003Z,4.80
2022-11-26T16:51:43.355Z,4.73
2022-11-26T16:54:09.717Z,4.72
2022-11-26T16:56:38.008Z,4.67
2022-11-26T16:59:17.068Z,4.62
2022-11-26T17:01:43.425Z,4.57
2022-11-26T17:04:10.569Z,4.53
2022-11-26T17:06:37.630Z,4.50
2022-11-26T17:09:04.082Z,4.47
2022-11-26T17:11:30.525Z,4.40
2022-11-26T17:13:56.929Z,4.34
2022-11-26T17:16:23.543Z,4.26
2022-11-26T17:18:50.533Z,4.22
2022-11-26T17:21:16.977Z,4.22
2022-11-26T17:23:43.346Z,4.19
2022-11-26T17:26:20.495Z,4.20
2022-11-26T17:28:47.398Z,4.20
2022-11-26T17:31:13.909Z,4.18
2022-11-26T17:33:40.447Z,4.13
2022-11-26T17:36:19.395Z,4.17
2022-11-26T17:38:45.951Z,4.20
2022-11-26T17:41:13.162Z,4.26
2022-11-26T17:43:39.663Z,4.39
2022-11-26T17:46:12.580Z,4.40
2022-11-26T17:48:38.953Z,4.47
2022-11-26T17:51:05.462Z,4.49
2022-11-26T17:53:31.837Z,4.52
2022-11-26T17:55:58.183Z,4.49
2022-11-26T17:58:24.539Z,4.42
2022-11-26T18:00:50.911Z,4.38
2022-11-26T18:03:17.264Z,4.34
2022-11-26T18:05:43.628Z,4.32
2022-11-26T18:08:09.994Z,4.31
2022-11-26T18:10:39.206Z,4.30
2022-11-26T18:13:05.543Z,4.26
2022-11-26T18:15:31.910Z,4.20
2022-11-26T18:17:58.264Z,4.15
2022-11-26T18:20:25.887Z,4.09
2022-11-26T18:22:56.916Z,4.10
2022-11-26T18:25:23.437Z,4.04
2022-11-26T18:27:49.810Z,3.99
2022-11-26T18:30:16.969Z,4.01
2022-11-26T18:32:43.429Z,4.02
2022-11-26T18:35:09.891Z,4.00
2022-11-26T18:37:37.384Z,3.99
2022-11-26T18:40:04.624Z,3.95
2022-11-26T18:42:38.674Z,3.90
2022-11-26T18:45:06.911Z,3.93
2022-11-26T18:47:33.271Z,3.89
2022-11-26T18:49:59.872Z,3.87
2022-11-26T18:52:26.289Z,3.83
2022-11-26T18:54:52.641Z,3.83
2022-11-26T18:57:19.045Z,3.83
2022-11-26T18:59:46.638Z,3.78
2022-11-26T19:02:13.668Z,3.82
2022-11-26T19:04:40.142Z,3.85
2022-11-26T19:07:06.616Z,3.92
2022-11-26T19:09:32.966Z,4.01
2022-11-26T19:11:59.335Z,4.04
2022-11-26T19:14:25.712Z,4.05
2022-11-26T19:16:52.175Z,4.05
2022-11-26T19:19:18.638Z,4.07
2022-11-26T19:21:45.033Z,4.03
2022-11-26T19:24:11.547Z,3.99
2022-11-26T19:26:38.100Z,3.92
2022-11-26T19:29:05.202Z,3.90
2022-11-26T19:31:35.708Z,3.91
2022-11-26T19:34:05.869Z,3.90
2022-11-26T19:36:32.992Z,3.91
2022-11-26T19:39:00.236Z,3.92
2022-11-26T19:41:26.886Z,3.88
2022-11-26T19:43:53.336Z,3.83
2022-11-26T19:46:22.235Z,3.81
2022-11-26T19:48:49.368Z,3.83
2022-11-26T19:51:16.627Z,3.86
2022-11-26T19:53:43.129Z,3.87
2022-11-26T19:56:12.840Z,3.90
2022-11-26T19:58:39.177Z,3.92
2022-11-26T20:01:06.413Z,3.95
2022-11-26T20:03:37.241Z,3.98
2022-11-26T20:06:05.973Z,4.01
2022-11-26T20:08:33.459Z,4.04
2022-11-26T20:11:03.927Z,4.07
2022-11-26T20:13:30.280Z,4.13
2022-11-26T20:15:56.613Z,4.17
2022-11-26T20:18:23.101Z,4.17
2022-11-26T20:20:59.688Z,4.14
2022-11-26T20:23:26.778Z,4.15
2022-11-26T20:25:53.351Z,4.14
2022-11-26T20:28:19.721Z,4.16
2022-11-26T20:30:46.399Z,4.17
2022-11-26T20:33:12.887Z,4.13
2022-11-26T20:35:40.136Z,4.14
2022-11-26T20:38:06.923Z,4.17
2022-11-26T20:40:33.285Z,4.17
2022-11-26T20:42:59.730Z,4.14
2022-11-26T20:45:26.182Z,4.13
2022-11-26T20:47:52.540Z,4.13
2022-11-26T20:50:18.888Z,4.08
2022-11-26T20:52:45.256Z,4.07
2022-11-26T20:55:11.649Z,4.05
2022-11-26T20:57:38.099Z,4.09
2022-11-26T21:00:05.542Z,4.09
2022-11-26T21:02:32.084Z,4.10
2022-11-26T21:05:00.452Z,4.06
2022-11-26T21:07:29.361Z,4.01
2022-11-26T21:09:56.451Z,4.01
2022-11-26T21:12:22.810Z,4.02
2022-11-26T21:14:49.180Z,3.99
2022-11-26T21:17:15.699Z,3.94
2022-11-26T21:19:42.266Z,3.94
2022-11-26T21:22:08.733Z,3.89
2022-11-26T21:24:37.014Z,3.87
2022-11-26T21:27:03.440Z,3.82
2022-11-26T21:29:30.212Z,3.82
2022-11-26T21:31:56.687Z,3.79
2022-11-26T21:34:23.151Z,3.69
2022-11-26T21:36:49.586Z,3.63
2022-11-26T21:39:16.020Z,3.55
2022-11-26T21:41:42.485Z,3.49
2022-11-26T21:44:08.898Z,3.46
2022-11-26T21:46:38.506Z,3.39
2022-11-26T21:49:05.090Z,3.32
2022-11-26T21:51:31.536Z,3.27
2022-11-26T21:53:58.132Z,3.24
2022-11-26T21:56:29.109Z,3.20
2022-11-26T21:58:56.904Z,3.20
2022-11-26T22:01:31.449Z,3.18
2022-11-26T22:03:59.846Z,3.10
2022-11-26T22:06:26.368Z,3.03
2022-11-26T22:08:52.725Z,2.98
2022-11-26T22:11:21.380Z,2.94
2022-11-26T22:13:47.803Z,2.96
2022-11-26T22:16:17.713Z,2.87
2022-11-26T22:18:44.747Z,2.86
2022-11-26T22:21:16.448Z,2.80
2022-11-26T22:23:42.967Z,2.73
2022-11-26T22:26:09.470Z,2.72
2022-11-26T22:28:35.881Z,2.70
2022-11-26T22:31:25.220Z,2.64
2022-11-26T22:33:54.939Z,2.61
2022-11-26T22:36:21.378Z,2.63
2022-11-26T22:38:47.767Z,2.69
2022-11-26T22:41:14.390Z,2.69
2022-11-26T22:43:41.181Z,2.69
2022-11-26T22:46:12.318Z,2.68
2022-11-26T22:48:38.768Z,2.60
2022-11-26T22:51:05.341Z,2.56
2022-11-26T22:53:33.420Z,2.49
2022-11-26T22:56:00.372Z,2.42
2022-11-26T22:58:27.145Z,2.43
2022-11-26T23:00:58.421Z,2.43
2022-11-26T23:03:26.135Z,2.48
2022-11-26T23:05:52.694Z,2.42
2022-11-26T23:08:19.369Z,2.36
2022-11-26T23:10:45.751Z,2.27
2022-11-26T23:13:12.627Z,2.22
2022-11-26T23:15:44.476Z,2.18
2022-11-26T23:18:12.304Z,2.21
2022-11-26T23:20:38.698Z,2.25
2022-11-26T23:23:05.114Z,2.24
2022-11-26T23:25:31.522Z,2.22
2022-11-26T23:27:57.908Z,2.19
2022-11-26T23:30:24.399Z,2.20
2022-11-26T23:32:50.773Z,2.21
2022-11-26T23:35:17.206Z,2.18
2022-11-26T23:37:43.604Z,2.19
2022-11-26T23:40:10.558Z,2.23
2022-11-26T23:42:36.906Z,2.20
2022-11-26T23:45:03.468Z,2.25
2022-11-26T23:47:29.827Z,2.25
2022-11-26T23:50:00.767Z,2.19
2022-11-26T23:52:27.467Z,2.13
2022-11-26T23:54:53.812Z,2.04
2022-11-26T23:57:20.481Z,1.95
2022-11-26T23:59:46.873Z,1.93
